createdAt,value
2022-08-22T00:01:19.757Z,1.50
2022-08-22T00:02:53.912Z,2.05
2022-08-22T00:03:41.066Z,1.77
2022-08-22T00:05:58.117Z,1.67
2022-08-22T00:08:15.104Z,1.60
2022-08-22T00:10:32.408Z,1.90
2022-08-22T00:12:49.743Z,1.50
2022-08-22T00:15:08.186Z,1.50
2022-08-22T00:17:33.847Z,1.70
2022-08-22T00:19:50.987Z,1.70
2022-08-22T00:22:08.113Z,1.65
2022-08-22T00:24:25.194Z,1.90
2022-08-22T00:26:45.473Z,1.70
2022-08-22T00:29:02.871Z,1.52
2022-08-22T00:31:20.125Z,1.60
2022-08-22T00:33:37.172Z,1.70
2022-08-22T00:35:54.140Z,1.67
2022-08-22T00:38:12.261Z,1.70
2022-08-22T00:40:30.359Z,1.70
2022-08-22T00:42:47.335Z,1.92
2022-08-22T00:45:04.751Z,1.52
2022-08-22T00:47:22.116Z,1.70
2022-08-22T00:49:39.804Z,1.50
2022-08-22T00:51:56.942Z,1.60
2022-08-22T00:54:17.716Z,1.40
2022-08-22T00:56:35.446Z,1.50
2022-08-22T00:58:52.578Z,1.70
2022-08-22T01:01:11.051Z,1.73
2022-08-22T01:03:28.137Z,1.75
2022-08-22T01:05:45.130Z,1.77
2022-08-22T01:08:02.566Z,1.70
2022-08-22T01:10:19.638Z,1.70
2022-08-22T01:12:36.650Z,1.73
2022-08-22T01:14:54.000Z,1.77
2022-08-22T01:17:10.939Z,1.45
2022-08-22T01:19:28.908Z,1.55
2022-08-22T01:21:46.228Z,2.00
2022-08-22T01:24:03.417Z,1.63
2022-08-22T01:26:23.297Z,1.73
2022-08-22T01:28:43.519Z,1.70
2022-08-22T01:31:00.800Z,2.00
2022-08-22T01:33:18.481Z,1.70
2022-08-22T01:35:36.473Z,1.73
2022-08-22T01:37:53.794Z,1.80
2022-08-22T01:40:10.882Z,1.88
2022-08-22T01:42:29.213Z,1.63
2022-08-22T01:44:46.168Z,1.67
2022-08-22T01:47:03.419Z,1.60
2022-08-22T01:49:20.377Z,1.48
2022-08-22T01:51:38.585Z,1.67
2022-08-22T01:53:56.679Z,1.92
2022-08-22T01:56:13.649Z,1.80
2022-08-22T01:58:30.678Z,1.80
2022-08-22T02:00:48.841Z,1.70
2022-08-22T02:03:06.156Z,1.70
2022-08-22T02:05:23.454Z,1.92
2022-08-22T02:07:40.542Z,1.73
2022-08-22T02:09:57.552Z,1.85
2022-08-22T02:12:21.868Z,1.75
2022-08-22T02:14:39.491Z,1.98
2022-08-22T02:16:56.434Z,2.03
2022-08-22T02:19:13.893Z,1.77
2022-08-22T02:21:31.221Z,1.70
2022-08-22T02:23:48.290Z,1.80
2022-08-22T02:26:05.576Z,1.77
2022-08-22T02:28:23.725Z,1.88
2022-08-22T02:30:41.048Z,1.58
2022-08-22T02:32:57.984Z,1.90
2022-08-22T02:35:15.069Z,1.73
2022-08-22T02:37:32.163Z,1.88
2022-08-22T02:39:52.461Z,1.90
2022-08-22T02:42:10.485Z,1.92
2022-08-22T02:44:27.566Z,2.17
2022-08-22T02:46:45.643Z,2.00
2022-08-22T02:49:02.756Z,1.80
2022-08-22T02:51:20.371Z,1.83
2022-08-22T02:53:37.451Z,1.80
2022-08-22T02:55:54.503Z,1.80
2022-08-22T02:58:11.773Z,1.80
2022-08-22T03:00:32.770Z,2.05
2022-08-22T03:02:50.208Z,1.90
2022-08-22T03:05:07.279Z,1.92
2022-08-22T03:07:26.218Z,1.98
2022-08-22T03:09:43.291Z,2.08
2022-08-22T03:12:00.653Z,1.85
2022-08-22T03:14:18.725Z,1.90
2022-08-22T03:16:35.755Z,2.00
2022-08-22T03:18:53.776Z,2.03
2022-08-22T03:21:10.862Z,1.90
2022-08-22T03:23:28.221Z,2.03
2022-08-22T03:25:45.512Z,2.30
2022-08-22T03:28:02.863Z,1.98
2022-08-22T03:30:22.737Z,1.90
2022-08-22T03:32:40.064Z,1.80
2022-08-22T03:34:57.449Z,1.88
2022-08-22T03:37:14.834Z,1.90
2022-08-22T03:39:31.908Z,2.10
2022-08-22T03:41:48.953Z,2.00
2022-08-22T03:44:07.245Z,1.90
2022-08-22T03:46:24.356Z,2.28
2022-08-22T03:48:42.300Z,2.13
2022-08-22T03:50:59.304Z,2.20
2022-08-22T03:53:19.282Z,1.83
2022-08-22T03:55:36.701Z,2.33
2022-08-22T03:57:55.267Z,2.00
2022-08-22T04:00:12.669Z,2.20
2022-08-22T04:02:43.287Z,2.78
2022-08-22T04:05:01.516Z,2.17
2022-08-22T04:07:28.304Z,2.50
2022-08-22T04:09:49.315Z,2.13
2022-08-22T04:12:07.963Z,2.15
2022-08-22T04:14:25.036Z,2.00
2022-08-22T04:16:42.457Z,2.03
2022-08-22T04:18:59.745Z,2.00
2022-08-22T04:21:19.173Z,2.33
2022-08-22T04:23:37.142Z,2.20
2022-08-22T04:25:58.451Z,2.10
2022-08-22T04:28:16.680Z,2.13
2022-08-22T04:30:34.177Z,2.30
2022-08-22T04:32:51.504Z,1.95
2022-08-22T04:35:08.879Z,1.92
2022-08-22T04:37:27.701Z,2.22
2022-08-22T04:39:45.085Z,2.08
2022-08-22T04:42:16.339Z,2.30
2022-08-22T04:44:40.208Z,1.92
2022-08-22T04:46:57.245Z,1.88
2022-08-22T04:49:14.367Z,2.28
2022-08-22T04:51:31.417Z,1.90
2022-08-22T04:53:49.657Z,2.15
2022-08-22T04:56:07.608Z,1.92
2022-08-22T04:58:25.950Z,2.40
2022-08-22T05:00:43.061Z,1.95
2022-08-22T05:03:00.168Z,2.28
2022-08-22T05:05:17.514Z,2.38
2022-08-22T05:07:36.125Z,2.22
2022-08-22T05:09:53.278Z,2.20
2022-08-22T05:12:11.690Z,2.05
2022-08-22T05:14:29.784Z,2.10
2022-08-22T05:16:47.229Z,1.92
2022-08-22T05:19:05.522Z,1.95
2022-08-22T05:21:22.629Z,2.00
2022-08-22T05:23:45.211Z,2.20
2022-08-22T05:26:02.333Z,2.30
2022-08-22T05:28:19.435Z,2.30
2022-08-22T05:30:36.399Z,2.05
2022-08-22T05:32:53.741Z,2.10
2022-08-22T05:35:12.069Z,2.20
2022-08-22T05:37:29.153Z,1.90
2022-08-22T05:39:47.531Z,2.10
2022-08-22T05:42:04.718Z,2.10
2022-08-22T05:44:21.744Z,2.30
2022-08-22T05:46:38.683Z,1.95
2022-08-22T05:48:57.031Z,2.30
2022-08-22T05:51:13.972Z,2.20
2022-08-22T05:53:30.892Z,2.45
2022-08-22T05:55:49.146Z,2.33
2022-08-22T05:58:06.268Z,2.20
2022-08-22T06:00:23.503Z,2.20
2022-08-22T06:02:40.755Z,2.30
2022-08-22T06:04:58.021Z,2.33
2022-08-22T06:07:15.165Z,2.33
2022-08-22T06:09:35.640Z,2.45
2022-08-22T06:11:52.913Z,2.20
2022-08-22T06:14:10.234Z,2.10
2022-08-22T06:16:29.984Z,2.28
2022-08-22T06:18:47.295Z,2.08
2022-08-22T06:21:04.303Z,1.92
2022-08-22T06:23:21.224Z,1.70
2022-08-22T06:25:38.568Z,2.50
2022-08-22T06:27:55.739Z,1.95
2022-08-22T06:30:13.049Z,1.88
2022-08-22T06:32:58.447Z,1.90
2022-08-22T06:35:07.334Z,1.98
2022-08-22T06:37:24.640Z,1.80
2022-08-22T06:39:42.678Z,1.98
2022-08-22T06:41:59.760Z,1.70
2022-08-22T06:44:17.070Z,1.98
2022-08-22T06:46:34.312Z,1.80
2022-08-22T06:48:51.368Z,1.88
2022-08-22T06:51:08.405Z,2.10
2022-08-22T06:53:25.306Z,2.20
2022-08-22T06:55:42.664Z,1.77
2022-08-22T06:57:59.856Z,1.83
2022-08-22T07:00:16.904Z,1.90
2022-08-22T07:02:33.853Z,1.85
2022-08-22T07:04:51.088Z,2.00
2022-08-22T07:07:08.177Z,1.95
2022-08-22T07:09:25.247Z,1.67
2022-08-22T07:11:42.546Z,2.05
2022-08-22T07:13:59.813Z,1.80
2022-08-22T07:16:17.053Z,2.05
2022-08-22T07:18:34.078Z,1.92
2022-08-22T07:20:51.429Z,1.98
2022-08-22T07:23:12.066Z,1.90
2022-08-22T07:25:29.458Z,2.03
2022-08-22T07:27:48.761Z,1.70
2022-08-22T07:30:06.596Z,1.88
2022-08-22T07:32:27.707Z,2.00
2022-08-22T07:34:45.924Z,1.90
2022-08-22T07:37:02.894Z,1.92
2022-08-22T07:39:20.088Z,1.50
2022-08-22T07:41:38.796Z,2.00
2022-08-22T07:43:56.075Z,2.00
2022-08-22T07:46:13.311Z,2.00
2022-08-22T07:48:30.359Z,2.03
2022-08-22T07:50:47.431Z,1.90
2022-08-22T07:53:04.664Z,2.00
2022-08-22T07:55:21.625Z,2.13
2022-08-22T07:57:38.686Z,1.98
2022-08-22T07:59:55.734Z,2.17
2022-08-22T08:02:13.100Z,2.10
2022-08-22T08:04:30.357Z,2.30
2022-08-22T08:06:47.405Z,2.20
2022-08-22T08:09:04.737Z,2.58
2022-08-22T08:11:21.987Z,2.25
2022-08-22T08:13:38.976Z,2.20
2022-08-22T08:15:56.247Z,2.22
2022-08-22T08:18:13.164Z,2.60
2022-08-22T08:20:30.503Z,2.75
2022-08-22T08:22:48.509Z,2.55
2022-08-22T08:25:05.469Z,2.40
2022-08-22T08:27:22.428Z,2.42
2022-08-22T08:29:39.704Z,2.47
2022-08-22T08:31:56.738Z,2.40
2022-08-22T08:34:13.668Z,2.30
2022-08-22T08:36:30.738Z,2.85
2022-08-22T08:38:48.675Z,2.67
2022-08-22T08:41:05.968Z,2.67
2022-08-22T08:43:23.150Z,2.60
2022-08-22T08:45:40.264Z,2.53
2022-08-22T08:47:57.310Z,2.30
2022-08-22T08:50:14.413Z,2.50
2022-08-22T08:52:32.227Z,2.67
2022-08-22T08:54:49.345Z,2.78
2022-08-22T08:57:07.907Z,2.67
2022-08-22T08:59:26.129Z,3.10
2022-08-22T09:01:44.606Z,2.53
2022-08-22T09:04:02.161Z,2.83
2022-08-22T09:06:21.261Z,3.03
2022-08-22T09:08:38.514Z,3.15
2022-08-22T09:10:56.555Z,2.97
2022-08-22T09:13:14.162Z,2.78
2022-08-22T09:15:37.274Z,3.03
2022-08-22T09:17:56.080Z,2.83
2022-08-22T09:20:15.489Z,2.70
2022-08-22T09:22:49.905Z,2.67
2022-08-22T09:25:07.964Z,3.20
2022-08-22T09:27:25.321Z,2.97
2022-08-22T09:29:54.941Z,3.13
2022-08-22T09:32:16.937Z,3.30
2022-08-22T09:34:36.303Z,2.92
2022-08-22T09:36:53.776Z,3.20
2022-08-22T09:39:13.065Z,3.20
2022-08-22T09:41:32.134Z,3.00
2022-08-22T09:43:50.901Z,2.90
2022-08-22T09:46:09.803Z,3.20
2022-08-22T09:48:27.105Z,3.67
2022-08-22T09:50:44.072Z,3.33
2022-08-22T09:53:03.274Z,3.20
2022-08-22T09:55:35.382Z,3.28
2022-08-22T09:57:55.834Z,3.25
2022-08-22T10:00:12.885Z,3.25
2022-08-22T10:02:31.571Z,2.92
2022-08-22T10:04:51.312Z,3.30
2022-08-22T10:07:11.953Z,3.17
2022-08-22T10:09:31.504Z,3.00
2022-08-22T10:11:50.535Z,3.08
2022-08-22T10:14:07.829Z,2.92
2022-08-22T10:16:25.125Z,3.33
2022-08-22T10:18:52.678Z,3.42
2022-08-22T10:21:11.074Z,2.75
2022-08-22T10:23:28.142Z,3.08
2022-08-22T10:25:45.280Z,3.20
2022-08-22T10:28:03.711Z,3.10
2022-08-22T10:30:21.499Z,3.10
2022-08-22T10:32:38.789Z,3.20
2022-08-22T10:34:57.348Z,3.55
2022-08-22T10:37:14.493Z,3.30
2022-08-22T10:39:32.492Z,3.20
2022-08-22T10:41:50.132Z,3.17
2022-08-22T10:44:07.834Z,3.38
2022-08-22T10:46:27.790Z,3.25
2022-08-22T10:48:45.951Z,3.20
2022-08-22T10:51:08.852Z,2.97
2022-08-22T10:53:29.725Z,3.00
2022-08-22T10:55:46.783Z,3.20
2022-08-22T10:58:03.989Z,2.95
2022-08-22T11:00:22.414Z,3.30
2022-08-22T11:02:42.384Z,2.88
2022-08-22T11:05:01.860Z,2.75
2022-08-22T11:07:21.398Z,3.03
2022-08-22T11:09:40.260Z,3.08
2022-08-22T11:12:00.217Z,3.17
2022-08-22T11:14:17.359Z,2.97
2022-08-22T11:16:36.814Z,3.05
2022-08-22T11:19:04.878Z,2.75
2022-08-22T11:21:33.686Z,3.00
2022-08-22T11:23:51.000Z,3.10
2022-08-22T11:26:08.280Z,3.35
2022-08-22T11:28:28.810Z,3.17
2022-08-22T11:30:46.761Z,2.92
2022-08-22T11:33:07.382Z,3.10
2022-08-22T11:35:26.488Z,2.88
2022-08-22T11:37:44.459Z,3.22
2022-08-22T11:40:01.876Z,3.10
2022-08-22T11:42:21.784Z,3.10
2022-08-22T11:44:50.645Z,3.00
2022-08-22T11:47:08.107Z,3.03
2022-08-22T11:49:27.238Z,2.95
2022-08-22T11:51:44.724Z,2.70
2022-08-22T11:54:01.863Z,3.10
2022-08-22T11:56:19.135Z,2.85
2022-08-22T11:58:36.570Z,2.95
2022-08-22T12:00:53.649Z,3.20
2022-08-22T12:03:10.983Z,3.10
2022-08-22T12:05:27.955Z,3.00
2022-08-22T12:07:50.481Z,3.20
2022-08-22T12:10:07.656Z,2.70
2022-08-22T12:12:30.847Z,2.77
2022-08-22T12:14:48.926Z,3.10
2022-08-22T12:17:06.204Z,2.92
2022-08-22T12:19:27.223Z,2.92
2022-08-22T12:24:11.337Z,3.30
2022-08-22T12:26:36.490Z,2.80
2022-08-22T12:28:57.952Z,3.30
2022-08-22T12:31:15.869Z,3.03
2022-08-22T12:33:33.051Z,2.78
2022-08-22T12:35:50.486Z,2.92
2022-08-22T12:38:26.635Z,2.90
2022-08-22T12:40:46.810Z,2.90
2022-08-22T12:43:04.304Z,3.30
2022-08-22T12:45:23.602Z,3.22
2022-08-22T12:47:42.304Z,2.90
2022-08-22T12:50:00.859Z,3.17
2022-08-22T12:52:18.104Z,2.80
2022-08-22T12:54:35.170Z,3.03
2022-08-22T12:56:52.226Z,2.70
2022-08-22T12:59:09.174Z,2.92
2022-08-22T13:01:34.194Z,2.80
2022-08-22T13:03:52.031Z,2.90
2022-08-22T13:06:13.663Z,3.25
2022-08-22T13:08:32.175Z,2.80
2022-08-22T13:10:49.491Z,2.75
2022-08-22T13:13:12.272Z,2.85
2022-08-22T13:15:29.729Z,2.70
2022-08-22T13:17:47.032Z,3.05
2022-08-22T13:20:03.976Z,3.05
2022-08-22T13:22:22.686Z,2.75
2022-08-22T13:24:52.426Z,3.10
2022-08-22T13:27:10.098Z,3.03
2022-08-22T13:29:39.103Z,2.80
2022-08-22T13:31:59.492Z,3.10
2022-08-22T13:34:16.464Z,2.83
2022-08-22T13:36:40.000Z,3.13
2022-08-22T13:38:57.038Z,2.80
2022-08-22T13:41:14.521Z,2.78
2022-08-22T13:43:31.838Z,3.40
2022-08-22T13:45:49.443Z,2.88
2022-08-22T13:48:08.997Z,2.70
2022-08-22T13:50:28.461Z,2.92
2022-08-22T13:52:55.186Z,3.00
2022-08-22T13:55:13.644Z,3.00
2022-08-22T13:57:31.038Z,3.00
2022-08-22T13:59:51.534Z,3.00
2022-08-22T14:02:09.931Z,3.08
2022-08-22T14:04:36.413Z,2.90
2022-08-22T14:06:53.969Z,3.05
2022-08-22T14:09:12.904Z,2.97
2022-08-22T14:11:32.062Z,3.13
2022-08-22T14:13:49.376Z,3.10
2022-08-22T14:16:06.657Z,3.15
2022-08-22T14:18:30.086Z,3.03
2022-08-22T14:20:48.794Z,3.08
2022-08-22T14:23:06.466Z,2.83
2022-08-22T14:25:23.519Z,2.95
2022-08-22T14:27:42.216Z,3.00
2022-08-22T14:29:59.283Z,3.03
2022-08-22T14:32:16.783Z,2.97
2022-08-22T14:34:39.807Z,3.00
2022-08-22T14:36:57.064Z,3.00
2022-08-22T14:39:14.494Z,3.20
2022-08-22T14:41:52.588Z,3.20
2022-08-22T14:44:13.795Z,2.47
2022-08-22T14:46:31.161Z,2.55
2022-08-22T14:48:48.120Z,2.72
2022-08-22T14:51:05.095Z,2.95
2022-08-22T14:53:25.065Z,2.97
2022-08-22T14:55:42.330Z,2.80
2022-08-22T14:58:00.536Z,2.78
2022-08-22T15:00:20.904Z,2.90
2022-08-22T15:02:38.234Z,3.08
2022-08-22T15:04:55.568Z,3.08
2022-08-22T15:07:12.549Z,2.88
2022-08-22T15:09:29.739Z,3.15
2022-08-22T15:11:48.240Z,2.80
2022-08-22T15:14:06.495Z,3.13
2022-08-22T15:16:23.830Z,3.30
2022-08-22T15:18:51.817Z,2.85
2022-08-22T15:21:12.838Z,3.22
2022-08-22T15:23:30.907Z,3.08
2022-08-22T15:25:48.010Z,3.00
2022-08-22T15:28:14.277Z,3.20
2022-08-22T15:30:34.355Z,3.50
2022-08-22T15:32:51.637Z,3.20
2022-08-22T15:35:09.921Z,3.00
2022-08-22T15:37:27.600Z,2.90
2022-08-22T15:39:47.462Z,3.20
2022-08-22T15:42:04.513Z,3.55
2022-08-22T15:44:33.075Z,3.20
2022-08-22T15:46:51.541Z,3.22
2022-08-22T15:49:11.046Z,3.08
2022-08-22T15:51:28.192Z,3.25
2022-08-22T15:53:45.143Z,3.45
2022-08-22T15:56:05.110Z,3.15
2022-08-22T15:58:22.421Z,3.10
2022-08-22T16:00:43.827Z,3.28
2022-08-22T16:03:02.583Z,3.30
2022-08-22T16:05:19.558Z,3.30
2022-08-22T16:07:36.920Z,3.22
2022-08-22T16:09:54.016Z,3.05
2022-08-22T16:12:11.082Z,3.10
2022-08-22T16:14:29.604Z,3.15
2022-08-22T16:16:46.722Z,3.08
2022-08-22T16:19:05.046Z,2.80
2022-08-22T16:21:22.001Z,3.63
2022-08-22T16:23:39.060Z,3.05
2022-08-22T16:25:56.094Z,3.05
2022-08-22T16:28:14.484Z,3.83
2022-08-22T16:30:32.531Z,3.28
2022-08-22T16:32:49.630Z,3.10
2022-08-22T16:35:06.622Z,3.38
2022-08-22T16:37:23.590Z,3.47
2022-08-22T16:39:41.707Z,3.60
2022-08-22T16:41:58.756Z,3.30
2022-08-22T16:44:16.115Z,3.25
2022-08-22T16:46:36.624Z,2.92
2022-08-22T16:48:53.807Z,3.10
2022-08-22T16:51:11.260Z,3.30
2022-08-22T16:53:29.248Z,3.50
2022-08-22T16:55:46.424Z,3.20
2022-08-22T16:58:07.048Z,3.35
2022-08-22T17:00:24.317Z,3.55
2022-08-22T17:02:41.307Z,3.20
2022-08-22T17:04:58.284Z,3.15
2022-08-22T17:07:15.362Z,2.90
2022-08-22T17:09:32.460Z,3.00
2022-08-22T17:11:52.150Z,2.92
2022-08-22T17:14:09.275Z,3.28
2022-08-22T17:16:26.319Z,3.05
2022-08-22T17:18:43.568Z,2.97
2022-08-22T17:21:00.608Z,3.10
2022-08-22T17:23:17.604Z,2.60
2022-08-22T17:25:34.609Z,3.55
2022-08-22T17:27:51.652Z,3.15
2022-08-22T17:30:09.287Z,3.30
2022-08-22T17:32:26.640Z,3.17
2022-08-22T17:34:43.721Z,2.78
2022-08-22T17:37:00.640Z,3.10
2022-08-22T17:39:18.726Z,2.88
2022-08-22T17:41:36.096Z,3.20
2022-08-22T17:43:54.465Z,3.00
2022-08-22T17:46:13.314Z,3.47
2022-08-22T17:48:30.447Z,2.95
2022-08-22T17:50:49.517Z,3.10
2022-08-22T17:53:07.647Z,3.28
2022-08-22T17:55:24.797Z,3.30
2022-08-22T17:57:41.716Z,3.20
2022-08-22T17:59:58.713Z,3.40
2022-08-22T18:02:15.960Z,3.10
2022-08-22T18:04:35.150Z,3.17
2022-08-22T18:06:55.503Z,3.28
2022-08-22T18:09:14.083Z,2.80
2022-08-22T18:11:38.870Z,3.20
2022-08-22T18:13:57.806Z,3.20
2022-08-22T18:16:15.906Z,3.00
2022-08-22T18:18:33.168Z,3.10
2022-08-22T18:20:50.315Z,3.28
2022-08-22T18:23:07.266Z,3.10
2022-08-22T18:25:38.787Z,3.05
2022-08-22T18:27:56.001Z,3.10
2022-08-22T18:30:13.026Z,3.30
2022-08-22T18:32:31.351Z,3.00
2022-08-22T18:34:50.443Z,3.00
2022-08-22T18:37:07.486Z,3.13
2022-08-22T18:39:24.540Z,3.10
2022-08-22T18:41:42.694Z,2.90
2022-08-22T18:43:59.769Z,2.83
2022-08-22T18:46:17.719Z,3.22
2022-08-22T18:48:35.797Z,3.15
2022-08-22T18:50:52.974Z,3.63
2022-08-22T18:53:10.231Z,3.25
2022-08-22T18:55:27.240Z,3.33
2022-08-22T18:57:44.209Z,3.90
2022-08-22T19:00:01.252Z,3.30
2022-08-22T19:02:18.568Z,3.30
2022-08-22T19:04:35.751Z,3.33
2022-08-22T19:06:53.757Z,3.33
2022-08-22T19:09:10.780Z,3.50
2022-08-22T19:11:28.088Z,3.60
2022-08-22T19:13:45.135Z,3.20
2022-08-22T19:16:03.032Z,3.10
2022-08-22T19:18:20.191Z,3.30
2022-08-22T19:20:37.213Z,3.40
2022-08-22T19:22:54.306Z,3.40
2022-08-22T19:25:11.394Z,3.47
2022-08-22T19:27:31.411Z,3.50
2022-08-22T19:29:48.705Z,3.33
2022-08-22T19:32:11.850Z,3.20
2022-08-22T19:34:30.623Z,3.70
2022-08-22T19:36:48.611Z,3.40
2022-08-22T19:39:08.899Z,3.13
2022-08-22T19:41:26.719Z,3.40
2022-08-22T19:43:43.875Z,3.28
2022-08-22T19:46:01.857Z,3.30
2022-08-22T19:48:18.866Z,3.60
2022-08-22T19:50:36.161Z,3.35
2022-08-22T19:52:53.412Z,3.60
2022-08-22T19:55:10.382Z,3.63
2022-08-22T19:57:28.658Z,3.80
2022-08-22T19:59:50.737Z,3.95
2022-08-22T20:02:08.809Z,3.85
2022-08-22T20:04:29.493Z,4.38
2022-08-22T20:06:48.828Z,3.97
2022-08-22T20:09:06.132Z,3.65
2022-08-22T20:11:23.167Z,3.70
2022-08-22T20:13:40.198Z,3.70
2022-08-22T20:15:57.185Z,3.60
2022-08-22T20:20:51.778Z,3.70
2022-08-22T20:23:10.090Z,3.67
2022-08-22T20:25:42.147Z,3.78
2022-08-22T20:28:00.805Z,3.28
2022-08-22T20:30:19.277Z,3.40
2022-08-22T20:32:38.893Z,3.15
2022-08-22T20:34:56.167Z,3.17
2022-08-22T20:37:45.418Z,3.25
2022-08-22T20:39:58.440Z,3.72
2022-08-22T20:42:15.953Z,3.63
2022-08-22T20:44:33.353Z,3.25
2022-08-22T20:46:53.437Z,3.50
2022-08-22T20:49:12.407Z,4.05
2022-08-22T20:51:29.933Z,3.78
2022-08-22T20:53:47.249Z,3.50
2022-08-22T20:56:07.063Z,3.60
2022-08-22T20:58:24.387Z,3.35
2022-08-22T21:00:41.479Z,3.70
2022-08-22T21:02:58.584Z,3.30
2022-08-22T21:05:17.045Z,3.90
2022-08-22T21:07:33.989Z,3.58
2022-08-22T21:09:50.997Z,3.88
2022-08-22T21:12:08.000Z,3.72
2022-08-22T21:14:25.051Z,3.70
2022-08-22T21:16:42.126Z,3.60
2022-08-22T21:18:59.167Z,3.75
2022-08-22T21:21:17.833Z,3.67
2022-08-22T21:23:36.001Z,3.28
2022-08-22T21:25:53.258Z,4.03
2022-08-22T21:28:10.298Z,3.80
2022-08-22T21:30:27.311Z,3.70
2022-08-22T21:32:45.140Z,3.75
2022-08-22T21:35:02.427Z,3.58
2022-08-22T21:37:19.708Z,3.55
2022-08-22T21:39:36.833Z,3.60
2022-08-22T21:41:54.074Z,3.85
2022-08-22T21:44:11.418Z,3.80
2022-08-22T21:46:28.402Z,3.72
2022-08-22T21:48:46.387Z,3.50
2022-08-22T21:51:03.497Z,3.65
2022-08-22T21:53:20.504Z,3.70
2022-08-22T21:55:37.441Z,3.45
2022-08-22T21:57:54.521Z,3.60
2022-08-22T22:00:12.635Z,3.65
2022-08-22T22:02:29.888Z,3.38
2022-08-22T22:04:48.430Z,3.38
2022-08-22T22:07:07.875Z,3.65
2022-08-22T22:09:24.944Z,3.65
2022-08-22T22:11:43.003Z,3.50
2022-08-22T22:13:59.997Z,3.53
2022-08-22T22:16:17.983Z,3.40
2022-08-22T22:18:35.092Z,3.80
2022-08-22T22:20:52.100Z,3.70
2022-08-22T22:23:09.430Z,3.60
2022-08-22T22:25:40.759Z,3.90
2022-08-22T22:27:59.365Z,3.72
2022-08-22T22:30:16.505Z,3.60
2022-08-22T22:32:33.693Z,3.30
2022-08-22T22:34:50.787Z,3.40
2022-08-22T22:37:08.114Z,3.95
2022-08-22T22:39:25.077Z,3.58
2022-08-22T22:41:43.212Z,3.60
2022-08-22T22:44:00.445Z,3.67
2022-08-22T22:46:17.799Z,3.60
2022-08-22T22:48:34.834Z,3.60
2022-08-22T22:50:53.245Z,3.63
2022-08-22T22:53:11.499Z,3.65
2022-08-22T22:55:36.592Z,3.70
2022-08-22T22:57:59.558Z,3.35
2022-08-22T23:00:18.084Z,3.67
2022-08-22T23:02:35.679Z,3.42
2022-08-22T23:04:53.731Z,3.80
2022-08-22T23:07:11.119Z,4.18
2022-08-22T23:09:38.690Z,3.65
2022-08-22T23:12:02.056Z,3.90
2022-08-22T23:14:19.120Z,3.78
2022-08-22T23:16:37.450Z,4.00
2022-08-22T23:18:54.792Z,3.95
2022-08-22T23:21:11.861Z,4.13
2022-08-22T23:23:31.653Z,4.30
2022-08-22T23:25:50.043Z,4.10
2022-08-22T23:28:07.402Z,3.92
2022-08-22T23:30:25.098Z,3.80
2022-08-22T23:32:42.017Z,3.50
2022-08-22T23:34:59.079Z,3.80
2022-08-22T23:37:16.200Z,3.90
2022-08-22T23:39:33.125Z,3.97
2022-08-22T23:41:50.147Z,3.58
2022-08-22T23:44:08.187Z,4.10
2022-08-22T23:46:31.219Z,4.07
2022-08-22T23:48:48.722Z,3.70
2022-08-22T23:51:05.639Z,4.10
2022-08-22T23:53:22.939Z,4.50
2022-08-22T23:55:40.073Z,3.72
2022-08-22T23:57:58.118Z,3.63
